createdAt,value
2023-04-04T00:00:27.411Z,92300.19
2023-04-04T00:01:24.643Z,92289.91
2023-04-04T00:02:21.409Z,92295.97
2023-04-04T00:03:18.257Z,92298.34
2023-04-04T00:04:15.108Z,92234.50
2023-04-04T00:05:11.776Z,92287.75
2023-04-04T00:06:08.805Z,92290.97
2023-04-04T00:07:05.573Z,92293.28
2023-04-04T00:08:03.157Z,92277.09
2023-04-04T00:08:59.744Z,92290.09
2023-04-04T00:09:56.442Z,92284.91
2023-04-04T00:11:00.589Z,92290.94
2023-04-04T00:11:57.234Z,92292.28
2023-04-04T00:12:53.898Z,92291.50
2023-04-04T00:13:50.727Z,92245.50
2023-04-04T00:14:47.319Z,92286.34
2023-04-04T00:15:43.908Z,92289.09
2023-04-04T00:16:40.580Z,92241.16
2023-04-04T00:17:37.205Z,92265.03
2023-04-04T00:18:33.746Z,92283.81
2023-04-04T00:19:30.306Z,92267.34
2023-04-04T00:20:26.938Z,92283.19
2023-04-04T00:21:25.585Z,92287.66
2023-04-04T00:22:22.163Z,92264.06
2023-04-04T00:23:18.737Z,92288.53
2023-04-04T00:24:15.321Z,92287.28
2023-04-04T00:25:12.281Z,92282.44
2023-04-04T00:26:08.893Z,92279.91
2023-04-04T00:27:05.726Z,92286.44
2023-04-04T00:28:02.412Z,92288.28
2023-04-04T00:28:59.061Z,92290.16
2023-04-04T00:29:55.946Z,92286.47
2023-04-04T00:30:52.577Z,92198.03
2023-04-04T00:31:49.175Z,92252.91
2023-04-04T00:32:45.979Z,92291.47
2023-04-04T00:33:42.613Z,92241.16
2023-04-04T00:34:39.127Z,92288.16
2023-04-04T00:35:35.676Z,92295.16
2023-04-04T00:36:32.480Z,92270.94
2023-04-04T00:37:29.115Z,92284.41
2023-04-04T00:38:25.681Z,92291.59
2023-04-04T00:39:23.623Z,92288.13
2023-04-04T00:40:20.241Z,92242.59
2023-04-04T00:41:17.500Z,92287.72
2023-04-04T00:42:14.163Z,92290.50
2023-04-04T00:43:11.494Z,92290.94
2023-04-04T00:44:08.208Z,92288.63
2023-04-04T00:45:08.525Z,92284.44
2023-04-04T00:46:05.492Z,92281.63
2023-04-04T00:47:12.984Z,92283.97
2023-04-04T00:48:09.985Z,92283.56
2023-04-04T00:49:06.604Z,92288.13
2023-04-04T00:50:03.427Z,92265.28
2023-04-04T00:51:00.050Z,92273.94
2023-04-04T00:51:57.979Z,92271.31
2023-04-04T00:52:55.519Z,92267.06
2023-04-04T00:53:52.713Z,92268.91
2023-04-04T00:54:49.362Z,92270.28
2023-04-04T00:55:46.170Z,92269.41
2023-04-04T00:56:42.857Z,92270.56
2023-04-04T00:57:39.718Z,92272.31
2023-04-04T00:58:36.473Z,92265.13
2023-04-04T00:59:33.398Z,92243.91
2023-04-04T01:00:30.628Z,92248.69
2023-04-04T01:01:27.507Z,92243.03
2023-04-04T01:02:24.978Z,92214.63
2023-04-04T01:03:21.997Z,92241.69
2023-04-04T01:04:18.705Z,92239.69
2023-04-04T01:05:15.919Z,92232.69
2023-04-04T01:06:15.558Z,92225.41
2023-04-04T01:07:12.142Z,92227.91
2023-04-04T01:08:08.942Z,92224.53
2023-04-04T01:09:06.361Z,92231.13
2023-04-04T01:10:05.771Z,92220.13
2023-04-04T01:11:02.459Z,92236.25
2023-04-04T01:11:59.209Z,92194.97
2023-04-04T01:12:56.895Z,92232.97
2023-04-04T01:13:53.726Z,92234.84
2023-04-04T01:14:50.405Z,92238.31
2023-04-04T01:15:47.707Z,92241.69
2023-04-04T01:16:45.982Z,92238.28
2023-04-04T01:17:44.737Z,92244.72
2023-04-04T01:18:42.873Z,92245.09
2023-04-04T01:19:49.568Z,92253.06
2023-04-04T01:21:02.445Z,92245.41
2023-04-04T01:22:01.368Z,92204.19
2023-04-04T01:22:59.455Z,92246.25
2023-04-04T01:24:03.879Z,92242.75
2023-04-04T01:25:02.234Z,92241.69
2023-04-04T01:26:05.907Z,92206.94
2023-04-04T01:27:02.606Z,92227.09
2023-04-04T01:28:00.388Z,92251.94
2023-04-04T01:28:58.592Z,92246.63
2023-04-04T01:29:55.509Z,92237.81
2023-04-04T01:30:52.170Z,92249.81
2023-04-04T01:32:07.647Z,92252.78
2023-04-04T01:33:19.392Z,92255.09
2023-04-04T01:34:28.556Z,92290.25
2023-04-04T01:35:35.764Z,92257.97
2023-04-04T01:36:37.671Z,92252.03
2023-04-04T01:37:42.529Z,92224.81
2023-04-04T01:39:04.916Z,92252.44
2023-04-04T01:40:23.984Z,92253.38
2023-04-04T01:41:21.625Z,92225.19
2023-04-04T01:42:20.086Z,92227.09
2023-04-04T01:43:17.641Z,92221.50
2023-04-04T01:44:15.995Z,92263.47
2023-04-04T01:45:12.720Z,92261.66
2023-04-04T01:46:09.342Z,92263.50
2023-04-04T01:47:08.696Z,92209.63
2023-04-04T01:48:05.468Z,92261.81
2023-04-04T01:49:02.031Z,92241.75
2023-04-04T01:49:58.635Z,92254.13
2023-04-04T01:50:55.308Z,92265.59
2023-04-04T01:51:52.993Z,92268.59
2023-04-04T01:52:50.064Z,92270.34
2023-04-04T01:53:46.710Z,92269.22
2023-04-04T01:54:43.261Z,92262.09
2023-04-04T01:55:39.855Z,92254.34
2023-04-04T01:56:36.425Z,92273.72
2023-04-04T01:57:33.106Z,92277.16
2023-04-04T01:58:30.005Z,92265.84
2023-04-04T01:59:26.676Z,92272.56
2023-04-04T02:00:23.353Z,92268.69
2023-04-04T02:01:20.056Z,92280.03
2023-04-04T02:02:16.746Z,92269.72
2023-04-04T02:03:13.422Z,92264.50
2023-04-04T02:04:12.588Z,92273.50
2023-04-04T02:05:09.257Z,92212.78
2023-04-04T02:06:07.887Z,92264.28
2023-04-04T02:07:04.678Z,92264.00
2023-04-04T02:08:01.565Z,92268.09
2023-04-04T02:08:58.411Z,92265.19
2023-04-04T02:09:54.981Z,92264.44
2023-04-04T02:10:51.589Z,92265.19
2023-04-04T02:11:48.552Z,92262.59
2023-04-04T02:12:45.875Z,92263.06
2023-04-04T02:13:44.446Z,92261.53
2023-04-04T02:14:41.300Z,92259.94
2023-04-04T02:15:38.103Z,92262.94
2023-04-04T02:16:34.711Z,92259.13
2023-04-04T02:17:31.282Z,92274.34
2023-04-04T02:18:28.395Z,92268.19
2023-04-04T02:19:25.907Z,92268.66
2023-04-04T02:20:22.673Z,92264.16
2023-04-04T02:21:19.273Z,92259.28
2023-04-04T02:22:16.282Z,92265.38
2023-04-04T02:23:12.912Z,92263.16
2023-04-04T02:24:09.673Z,92257.44
2023-04-04T02:25:07.781Z,92262.75
2023-04-04T02:26:04.658Z,92258.88
2023-04-04T02:27:01.346Z,92254.53
2023-04-04T02:27:57.994Z,92265.34
2023-04-04T02:28:54.602Z,92260.84
2023-04-04T02:29:51.260Z,92259.50
2023-04-04T02:30:47.797Z,92265.16
2023-04-04T02:31:44.454Z,92260.28
2023-04-04T02:32:41.468Z,92261.88
2023-04-04T02:33:38.120Z,92268.06
2023-04-04T02:34:34.829Z,92257.22
2023-04-04T02:35:32.287Z,92252.88
2023-04-04T02:36:29.071Z,92251.63
2023-04-04T02:37:25.645Z,92252.97
2023-04-04T02:38:22.853Z,92249.03
2023-04-04T02:39:19.724Z,92252.53
2023-04-04T02:40:16.470Z,92244.75
2023-04-04T02:41:13.048Z,92208.84
2023-04-04T02:42:09.627Z,92247.75
2023-04-04T02:43:06.239Z,92249.09
2023-04-04T02:44:02.816Z,92234.56
2023-04-04T02:44:59.396Z,92246.91
2023-04-04T02:45:56.101Z,92248.22
2023-04-04T02:46:52.909Z,92256.91
2023-04-04T02:47:53.009Z,92207.84
2023-04-04T02:48:50.508Z,92255.06
2023-04-04T02:49:47.331Z,92251.56
2023-04-04T02:50:44.161Z,92234.19
2023-04-04T02:51:41.304Z,92184.66
2023-04-04T02:52:38.228Z,92255.25
2023-04-04T02:53:34.852Z,92260.03
2023-04-04T02:54:31.833Z,92256.34
2023-04-04T02:55:28.604Z,92261.53
2023-04-04T02:56:25.232Z,92260.97
2023-04-04T02:57:21.897Z,92257.06
2023-04-04T02:58:18.512Z,92260.13
2023-04-04T02:59:15.165Z,92262.09
2023-04-04T03:00:12.282Z,92256.72
2023-04-04T03:01:08.966Z,92259.78
2023-04-04T03:02:05.646Z,92254.72
2023-04-04T03:03:02.491Z,92264.13
2023-04-04T03:03:59.360Z,92271.13
2023-04-04T03:04:56.193Z,92261.91
2023-04-04T03:05:53.060Z,92254.88
2023-04-04T03:06:49.927Z,92257.59
2023-04-04T03:07:46.932Z,92252.47
2023-04-04T03:08:43.749Z,92254.72
2023-04-04T03:09:40.334Z,92253.72
2023-04-04T03:10:37.385Z,92258.00
2023-04-04T03:11:34.688Z,92218.88
2023-04-04T03:12:31.668Z,92253.03
2023-04-04T03:13:28.436Z,92263.97
2023-04-04T03:14:26.697Z,92208.66
2023-04-04T03:15:23.828Z,92259.28
2023-04-04T03:16:20.621Z,92267.22
2023-04-04T03:17:18.357Z,92265.78
2023-04-04T03:18:15.113Z,92266.34
2023-04-04T03:19:11.780Z,92263.03
2023-04-04T03:20:09.140Z,92270.63
2023-04-04T03:21:05.789Z,92271.09
2023-04-04T03:22:02.394Z,92271.06
2023-04-04T03:22:58.955Z,92274.72
2023-04-04T03:23:55.737Z,92228.00
2023-04-04T03:24:52.400Z,92260.22
2023-04-04T03:25:48.972Z,92264.34
2023-04-04T03:26:45.735Z,92241.31
2023-04-04T03:27:42.315Z,92272.31
2023-04-04T03:28:39.035Z,92261.81
2023-04-04T03:29:35.620Z,92254.28
2023-04-04T03:30:32.195Z,92264.50
2023-04-04T03:31:28.788Z,92261.66
2023-04-04T03:32:26.108Z,92245.94
2023-04-04T03:33:22.848Z,92258.91
2023-04-04T03:34:19.648Z,92263.09
2023-04-04T03:35:16.334Z,92237.66
2023-04-04T03:36:13.623Z,92256.06
2023-04-04T03:37:10.833Z,92253.34
2023-04-04T03:38:08.370Z,92260.34
2023-04-04T03:39:05.051Z,92252.72
2023-04-04T03:40:02.224Z,92262.00
2023-04-04T03:41:03.434Z,92251.06
2023-04-04T03:42:00.041Z,92260.78
2023-04-04T03:42:56.629Z,92265.31
2023-04-04T03:43:53.213Z,92261.31
2023-04-04T03:44:49.796Z,92254.03
2023-04-04T03:45:47.544Z,92260.72
2023-04-04T03:46:44.204Z,92252.22
2023-04-04T03:47:40.940Z,92251.97
2023-04-04T03:48:37.636Z,92260.16
2023-04-04T03:49:35.097Z,92259.25
2023-04-04T03:50:31.687Z,92259.88
2023-04-04T03:51:28.566Z,92257.16
2023-04-04T03:52:25.116Z,92246.53
2023-04-04T03:53:21.682Z,92242.13
2023-04-04T03:54:19.047Z,92256.78
2023-04-04T03:55:15.911Z,92253.69
2023-04-04T03:56:12.523Z,92255.59
2023-04-04T03:57:09.128Z,92215.84
2023-04-04T03:58:05.717Z,92256.34
2023-04-04T03:59:02.386Z,92264.94
2023-04-04T03:59:59.012Z,92256.56
2023-04-04T04:00:55.949Z,92247.56
2023-04-04T04:01:52.598Z,92257.56
2023-04-04T04:02:49.350Z,92257.22
2023-04-04T04:03:46.904Z,92256.16
2023-04-04T04:04:43.613Z,92248.75
2023-04-04T04:05:40.445Z,92254.31
2023-04-04T04:06:37.410Z,92259.78
2023-04-04T04:07:34.035Z,92254.50
2023-04-04T04:08:30.656Z,92251.97
2023-04-04T04:09:27.235Z,92250.09
2023-04-04T04:10:23.837Z,92254.56
2023-04-04T04:11:20.413Z,92163.25
2023-04-04T04:12:17.020Z,92255.78
2023-04-04T04:13:13.599Z,92244.78
2023-04-04T04:14:10.196Z,92249.38
2023-04-04T04:15:07.286Z,92254.13
2023-04-04T04:16:03.952Z,92253.69
2023-04-04T04:17:00.515Z,92244.88
2023-04-04T04:17:57.249Z,92251.66
2023-04-04T04:18:53.883Z,92246.75
2023-04-04T04:19:50.497Z,92254.03
2023-04-04T04:20:47.024Z,92245.44
2023-04-04T04:21:44.068Z,92250.47
2023-04-04T04:22:48.908Z,92242.75
2023-04-04T04:23:45.510Z,92241.00
2023-04-04T04:24:42.152Z,92248.72
2023-04-04T04:25:38.785Z,92244.47
2023-04-04T04:26:36.920Z,92253.69
2023-04-04T04:27:35.216Z,92242.97
2023-04-04T04:28:33.833Z,92239.38
2023-04-04T04:29:31.426Z,92252.31
2023-04-04T04:30:28.042Z,92248.06
2023-04-04T04:31:24.678Z,92253.25
2023-04-04T04:32:21.441Z,92237.44
2023-04-04T04:33:19.283Z,92234.47
2023-04-04T04:34:15.843Z,92253.59
2023-04-04T04:35:12.491Z,92241.03
2023-04-04T04:36:09.335Z,92253.84
2023-04-04T04:37:06.308Z,92257.06
2023-04-04T04:38:02.925Z,92254.50
2023-04-04T04:38:59.672Z,92257.84
2023-04-04T04:39:56.280Z,92256.91
2023-04-04T04:40:52.855Z,92242.09
2023-04-04T04:41:50.408Z,92259.38
2023-04-04T04:42:47.016Z,92256.41
2023-04-04T04:43:43.590Z,92266.06
2023-04-04T04:44:40.277Z,92267.66
2023-04-04T04:45:37.674Z,92275.06
2023-04-04T04:46:34.731Z,92277.16
2023-04-04T04:47:32.717Z,92274.34
2023-04-04T04:48:29.332Z,92278.34
2023-04-04T04:49:26.459Z,92283.44
2023-04-04T04:50:23.152Z,92279.94
2023-04-04T04:51:19.750Z,92285.56
2023-04-04T04:52:16.425Z,92288.50
2023-04-04T04:53:13.892Z,92279.56
2023-04-04T04:54:11.290Z,92288.75
2023-04-04T04:55:08.539Z,92290.81
2023-04-04T04:56:05.485Z,92292.94
2023-04-04T04:57:02.829Z,92295.28
2023-04-04T04:57:59.488Z,92277.63
2023-04-04T04:58:56.248Z,92298.16
2023-04-04T04:59:52.881Z,92297.09
2023-04-04T05:00:49.670Z,92299.50
2023-04-04T05:01:46.574Z,92295.47
2023-04-04T05:02:43.241Z,92288.69
2023-04-04T05:03:39.868Z,92303.44
2023-04-04T05:04:36.486Z,92304.28
2023-04-04T05:05:36.639Z,92298.94
2023-04-04T05:06:33.485Z,92302.50
2023-04-04T05:07:30.111Z,92307.22
2023-04-04T05:08:26.747Z,92311.50
2023-04-04T05:09:23.722Z,92310.34
2023-04-04T05:10:20.419Z,92312.09
2023-04-04T05:11:17.015Z,92284.94
2023-04-04T05:12:13.733Z,92313.50
2023-04-04T05:13:10.692Z,92308.94
2023-04-04T05:14:07.284Z,92304.19
2023-04-04T05:15:04.260Z,92306.50
2023-04-04T05:16:00.966Z,92309.53
2023-04-04T05:16:57.567Z,92314.78
2023-04-04T05:17:54.202Z,92313.00
2023-04-04T05:18:51.041Z,92313.31
2023-04-04T05:19:47.710Z,92311.56
2023-04-04T05:20:49.867Z,92310.84
2023-04-04T05:21:46.616Z,92313.22
2023-04-04T05:22:44.388Z,92325.00
2023-04-04T05:23:40.958Z,92316.31
2023-04-04T05:24:37.788Z,92316.38
2023-04-04T05:25:34.348Z,92319.94
2023-04-04T05:26:31.202Z,92313.78
2023-04-04T05:27:27.927Z,92311.78
2023-04-04T05:28:24.608Z,92314.19
2023-04-04T05:29:21.649Z,92295.75
2023-04-04T05:30:18.305Z,92322.44
2023-04-04T05:31:14.863Z,92321.75
2023-04-04T05:32:11.642Z,92325.28
2023-04-04T05:33:08.358Z,92322.28
2023-04-04T05:34:08.581Z,92318.75
2023-04-04T05:35:05.857Z,92324.06
2023-04-04T05:36:03.040Z,92319.97
2023-04-04T05:36:59.857Z,92328.69
2023-04-04T05:37:57.127Z,92315.94
2023-04-04T05:38:53.693Z,92318.28
2023-04-04T05:39:50.570Z,92324.06
2023-04-04T05:40:47.630Z,92327.50
2023-04-04T05:41:44.192Z,92327.44
2023-04-04T05:42:40.818Z,92332.44
2023-04-04T05:43:37.396Z,92327.16
2023-04-04T05:44:36.284Z,92326.72
2023-04-04T05:45:32.894Z,92333.19
2023-04-04T05:46:30.098Z,92295.72
2023-04-04T05:47:26.813Z,92313.28
2023-04-04T05:48:23.435Z,92302.50
2023-04-04T05:49:20.081Z,92329.38
2023-04-04T05:50:16.677Z,92333.75
2023-04-04T05:51:13.269Z,92322.91
2023-04-04T05:52:10.776Z,92334.09
2023-04-04T05:53:07.409Z,92291.56
2023-04-04T05:54:04.070Z,92312.34
2023-04-04T05:55:00.803Z,92332.91
2023-04-04T05:55:58.671Z,92288.41
2023-04-04T05:56:55.900Z,92328.00
2023-04-04T05:57:52.990Z,92306.63
2023-04-04T05:58:49.716Z,92335.22
2023-04-04T05:59:46.696Z,92319.84
2023-04-04T06:00:43.752Z,92326.63
2023-04-04T06:01:40.668Z,92330.34
2023-04-04T06:02:37.497Z,92330.34
2023-04-04T06:03:34.248Z,92328.06
2023-04-04T06:04:30.968Z,92335.13
2023-04-04T06:05:27.559Z,92324.34
2023-04-04T06:06:24.273Z,92325.84
2023-04-04T06:07:21.035Z,92327.38
2023-04-04T06:08:17.710Z,92330.44
2023-04-04T06:09:14.278Z,92332.66
2023-04-04T06:10:11.345Z,92334.91
2023-04-04T06:11:07.939Z,92321.16
2023-04-04T06:12:04.734Z,92278.84
2023-04-04T06:13:01.343Z,92333.13
2023-04-04T06:13:57.935Z,92334.25
2023-04-04T06:14:54.467Z,92302.50
2023-04-04T06:15:51.339Z,92331.94
2023-04-04T06:16:48.043Z,92329.25
2023-04-04T06:17:45.136Z,92336.19
2023-04-04T06:18:41.786Z,92342.09
2023-04-04T06:19:38.393Z,92334.88
2023-04-04T06:20:35.118Z,92336.06
2023-04-04T06:21:31.709Z,92339.06
2023-04-04T06:22:28.307Z,92335.38
2023-04-04T06:23:24.907Z,92334.16
2023-04-04T06:24:22.066Z,92341.34
2023-04-04T06:25:18.961Z,92341.31
2023-04-04T06:26:16.682Z,92332.53
2023-04-04T06:27:13.240Z,92342.81
2023-04-04T06:28:11.118Z,92347.31
2023-04-04T06:29:07.772Z,92334.50
2023-04-04T06:30:04.677Z,92346.72
2023-04-04T06:31:01.949Z,92348.41
2023-04-04T06:31:58.516Z,92346.41
2023-04-04T06:32:55.325Z,92285.53
2023-04-04T06:33:51.924Z,92343.56
2023-04-04T06:34:48.532Z,92321.88
2023-04-04T06:35:45.127Z,92347.53
2023-04-04T06:36:41.770Z,92333.91
2023-04-04T06:37:38.337Z,92350.63
2023-04-04T06:38:34.922Z,92352.91
2023-04-04T06:39:31.967Z,92353.03
2023-04-04T06:40:28.826Z,92352.84
2023-04-04T06:41:25.680Z,92289.06
2023-04-04T06:42:22.626Z,92357.59
2023-04-04T06:43:19.304Z,92365.47
2023-04-04T06:44:15.997Z,92311.41
2023-04-04T06:45:12.749Z,92357.09
2023-04-04T06:46:09.478Z,92348.72
2023-04-04T06:47:06.433Z,92356.16
2023-04-04T06:48:03.661Z,92351.78
2023-04-04T06:49:00.433Z,92359.78
2023-04-04T06:49:56.947Z,92344.09
2023-04-04T06:50:53.641Z,92362.72
2023-04-04T06:51:50.972Z,92369.28
2023-04-04T06:52:47.710Z,92373.06
2023-04-04T06:53:44.423Z,92365.63
2023-04-04T06:54:41.146Z,92366.25
2023-04-04T06:55:37.810Z,92371.88
2023-04-04T06:56:35.476Z,92376.41
2023-04-04T06:57:32.125Z,92378.16
2023-04-04T06:58:28.942Z,92381.69
2023-04-04T06:59:25.629Z,92386.16
2023-04-04T07:00:22.260Z,92379.84
2023-04-04T07:01:19.114Z,92341.16
2023-04-04T07:02:15.917Z,92357.28
2023-04-04T07:03:12.564Z,92394.06
2023-04-04T07:04:09.214Z,92393.16
2023-04-04T07:05:06.327Z,92336.88
2023-04-04T07:06:04.466Z,92390.56
2023-04-04T07:07:01.737Z,92397.84
2023-04-04T07:07:58.307Z,92377.75
2023-04-04T07:08:54.911Z,92407.13
2023-04-04T07:09:51.591Z,92409.59
2023-04-04T07:10:48.234Z,92376.59
2023-04-04T07:11:44.910Z,92425.84
2023-04-04T07:12:42.414Z,92375.66
2023-04-04T07:13:39.098Z,92413.69
2023-04-04T07:14:35.673Z,92416.59
2023-04-04T07:15:32.309Z,92417.44
2023-04-04T07:16:28.914Z,92423.19
2023-04-04T07:17:25.675Z,92409.78
2023-04-04T07:18:22.283Z,92419.75
2023-04-04T07:19:18.921Z,92426.69
2023-04-04T07:20:15.787Z,92428.22
2023-04-04T07:21:12.636Z,92419.59
2023-04-04T07:22:09.234Z,92423.53
2023-04-04T07:23:06.494Z,92434.09
2023-04-04T07:24:03.945Z,92432.13
2023-04-04T07:25:00.539Z,92438.88
2023-04-04T07:25:57.376Z,92439.38
2023-04-04T07:26:54.047Z,92408.78
2023-04-04T07:27:57.317Z,92356.97
2023-04-04T07:29:02.675Z,92418.59
2023-04-04T07:29:59.315Z,92432.03
2023-04-04T07:30:59.500Z,92457.19
2023-04-04T07:31:56.397Z,92442.03
2023-04-04T07:33:00.391Z,92430.19
2023-04-04T07:33:57.079Z,92447.72
2023-04-04T07:34:53.650Z,92453.97
2023-04-04T07:35:50.209Z,92440.66
2023-04-04T07:36:46.945Z,92446.44
2023-04-04T07:37:43.579Z,92447.06
2023-04-04T07:38:40.206Z,92448.69
2023-04-04T07:39:36.931Z,92441.34
2023-04-04T07:40:33.521Z,92444.44
2023-04-04T07:41:30.159Z,92449.53
2023-04-04T07:42:26.822Z,92453.78
2023-04-04T07:43:23.921Z,92457.78
2023-04-04T07:44:20.634Z,92449.66
2023-04-04T07:45:18.109Z,92465.38
2023-04-04T07:46:15.879Z,92441.16
2023-04-04T07:47:12.475Z,92463.59
2023-04-04T07:48:09.458Z,92470.97
2023-04-04T07:49:06.188Z,92475.31
2023-04-04T07:50:04.479Z,92476.97
2023-04-04T07:51:05.374Z,92472.44
2023-04-04T07:52:02.354Z,92471.94
2023-04-04T07:52:59.067Z,92468.34
2023-04-04T07:53:56.451Z,92469.63
2023-04-04T07:54:53.294Z,92477.88
2023-04-04T07:55:49.828Z,92469.19
2023-04-04T07:56:46.389Z,92451.72
2023-04-04T07:57:43.748Z,92405.47
2023-04-04T07:58:40.376Z,92477.38
2023-04-04T07:59:37.791Z,92407.59
2023-04-04T08:00:34.560Z,92469.16
2023-04-04T08:01:31.351Z,92471.41
2023-04-04T08:02:28.294Z,92478.34
2023-04-04T08:03:25.857Z,92472.41
2023-04-04T08:04:22.696Z,92477.16
2023-04-04T08:05:19.517Z,92476.56
2023-04-04T08:06:16.115Z,92476.53
2023-04-04T08:07:12.709Z,92472.66
2023-04-04T08:08:09.325Z,92476.56
2023-04-04T08:09:06.040Z,92482.09
2023-04-04T08:10:02.922Z,92460.84
2023-04-04T08:10:59.585Z,92483.41
2023-04-04T08:11:56.336Z,92482.66
2023-04-04T08:12:53.314Z,92475.81
2023-04-04T08:13:50.024Z,92487.28
2023-04-04T08:14:46.761Z,92485.41
2023-04-04T08:15:44.022Z,92470.19
2023-04-04T08:16:41.024Z,92472.16
2023-04-04T08:17:38.434Z,92444.16
2023-04-04T08:18:35.073Z,92482.06
2023-04-04T08:19:31.751Z,92479.00
2023-04-04T08:20:28.635Z,92490.41
2023-04-04T08:21:25.248Z,92490.59
2023-04-04T08:22:22.288Z,92482.25
2023-04-04T08:23:18.876Z,92483.63
2023-04-04T08:24:15.785Z,92446.69
2023-04-04T08:25:12.758Z,92495.19
2023-04-04T08:26:09.806Z,92491.03
2023-04-04T08:27:06.793Z,92497.41
2023-04-04T08:28:05.620Z,92491.22
2023-04-04T08:29:02.734Z,92444.31
2023-04-04T08:29:59.353Z,92494.72
2023-04-04T08:30:56.160Z,92496.56
2023-04-04T08:31:54.094Z,92499.47
2023-04-04T08:32:50.831Z,92496.00
2023-04-04T08:33:47.981Z,92501.53
2023-04-04T08:34:44.809Z,92460.28
2023-04-04T08:35:41.507Z,92489.69
2023-04-04T08:36:38.202Z,92493.59
2023-04-04T08:37:38.374Z,92503.25
2023-04-04T08:38:35.142Z,92496.25
2023-04-04T08:39:32.110Z,92466.34
2023-04-04T08:40:30.333Z,92501.13
2023-04-04T08:41:27.672Z,92507.34
2023-04-04T08:42:28.058Z,92501.97
2023-04-04T08:43:26.589Z,92500.00
2023-04-04T08:44:26.260Z,92477.22
2023-04-04T08:45:24.679Z,92501.78
2023-04-04T08:46:25.721Z,92515.88
2023-04-04T08:47:25.190Z,92521.25
2023-04-04T08:48:24.084Z,92493.78
2023-04-04T08:49:22.283Z,92516.28
2023-04-04T08:50:19.535Z,92518.78
2023-04-04T08:51:17.540Z,92525.94
2023-04-04T08:52:16.383Z,92534.63
2023-04-04T08:53:16.040Z,92536.13
2023-04-04T08:54:14.396Z,92533.03
2023-04-04T08:55:11.437Z,92545.41
2023-04-04T08:56:08.036Z,92533.56
2023-04-04T08:57:04.761Z,92537.63
2023-04-04T08:58:01.584Z,92536.72
2023-04-04T08:58:59.285Z,92541.88
2023-04-04T08:59:56.246Z,92524.19
2023-04-04T09:00:54.416Z,92513.44
2023-04-04T09:02:01.370Z,92498.63
2023-04-04T09:03:17.280Z,92552.72
2023-04-04T09:04:14.020Z,92549.97
2023-04-04T09:05:12.645Z,92563.81
2023-04-04T09:06:09.858Z,92558.69
2023-04-04T09:07:07.107Z,92539.66
2023-04-04T09:08:07.073Z,92558.00
2023-04-04T09:09:04.350Z,92560.34
2023-04-04T09:10:02.345Z,92547.84
2023-04-04T09:11:03.478Z,92520.53
2023-04-04T09:12:03.666Z,92567.13
2023-04-04T09:13:14.937Z,92570.88
2023-04-04T09:14:12.577Z,92564.25
2023-04-04T09:15:10.188Z,92562.78
2023-04-04T09:16:07.309Z,92561.41
2023-04-04T09:17:04.435Z,92563.84
2023-04-04T09:18:01.029Z,92562.94
2023-04-04T09:18:57.784Z,92536.31
2023-04-04T09:19:54.569Z,92579.00
2023-04-04T09:20:51.407Z,92567.81
2023-04-04T09:21:49.229Z,92564.25
2023-04-04T09:22:45.977Z,92568.63
2023-04-04T09:23:43.892Z,92563.56
2023-04-04T09:24:42.924Z,92567.13
2023-04-04T09:26:02.516Z,92564.16
2023-04-04T09:27:00.203Z,92567.63
2023-04-04T09:27:58.146Z,92569.53
2023-04-04T09:28:55.736Z,92571.13
2023-04-04T09:29:52.922Z,92568.91
2023-04-04T09:30:51.228Z,92583.91
2023-04-04T09:31:49.673Z,92579.53
2023-04-04T09:32:47.185Z,92580.38
2023-04-04T09:33:43.973Z,92571.22
2023-04-04T09:34:42.071Z,92579.97
2023-04-04T09:35:41.599Z,92571.09
2023-04-04T09:36:39.201Z,92462.06
2023-04-04T09:37:35.816Z,92568.09
2023-04-04T09:38:32.706Z,92570.72
2023-04-04T09:39:29.494Z,92575.66
2023-04-04T09:40:29.082Z,92569.94
2023-04-04T09:41:26.342Z,92561.63
2023-04-04T09:42:25.040Z,92540.38
2023-04-04T09:43:24.405Z,92578.28
2023-04-04T09:44:21.307Z,92582.59
2023-04-04T09:45:25.924Z,92579.69
2023-04-04T09:46:28.760Z,92580.34
2023-04-04T09:48:34.760Z,92578.25
2023-04-04T09:49:32.744Z,92582.25
2023-04-04T09:50:30.409Z,92589.75
2023-04-04T09:51:42.606Z,92585.56
2023-04-04T09:52:41.674Z,92583.94
2023-04-04T09:53:41.631Z,92579.22
2023-04-04T09:54:47.787Z,92581.75
2023-04-04T09:55:51.422Z,92584.00
2023-04-04T09:56:49.395Z,92575.66
2023-04-04T09:57:47.505Z,92566.78
2023-04-04T09:59:02.597Z,92579.84
2023-04-04T10:00:03.497Z,92573.94
2023-04-04T10:01:02.146Z,92584.81
2023-04-04T10:02:02.260Z,92577.56
2023-04-04T10:03:02.929Z,92535.31
2023-04-04T10:03:59.693Z,92578.56
2023-04-04T10:05:06.036Z,92578.56
2023-04-04T10:06:06.956Z,92545.28
2023-04-04T10:07:04.146Z,92579.94
2023-04-04T10:08:01.538Z,92591.72
2023-04-04T10:09:01.267Z,92582.91
2023-04-04T10:10:01.387Z,92548.69
2023-04-04T10:11:09.496Z,92588.81
2023-04-04T10:12:11.482Z,92589.16
2023-04-04T10:13:11.460Z,92582.16
2023-04-04T10:14:09.728Z,92584.44
2023-04-04T10:15:07.083Z,92590.84
2023-04-04T10:16:04.660Z,92602.50
2023-04-04T10:17:01.550Z,92588.72
2023-04-04T10:17:59.896Z,92583.28
2023-04-04T10:18:57.284Z,92600.25
2023-04-04T10:19:54.541Z,92608.16
2023-04-04T10:20:55.062Z,92570.72
2023-04-04T10:21:55.640Z,92611.63
2023-04-04T10:22:52.604Z,92614.41
2023-04-04T10:23:49.439Z,92610.75
2023-04-04T10:24:46.426Z,92604.88
2023-04-04T10:25:43.030Z,92606.97
2023-04-04T10:26:39.690Z,92607.53
2023-04-04T10:27:38.740Z,92604.72
2023-04-04T10:28:35.429Z,92613.34
2023-04-04T10:29:32.536Z,92613.03
2023-04-04T10:30:29.268Z,92613.34
2023-04-04T10:31:26.345Z,92581.44
2023-04-04T10:32:45.071Z,92621.47
2023-04-04T10:33:42.216Z,92459.31
2023-04-04T10:34:45.018Z,92600.50
2023-04-04T10:35:45.714Z,92616.09
2023-04-04T10:36:49.210Z,92617.41
2023-04-04T10:37:58.967Z,92618.19
2023-04-04T10:39:09.838Z,92619.28
2023-04-04T10:40:10.513Z,92619.03
2023-04-04T10:41:08.184Z,92587.19
2023-04-04T10:42:07.219Z,92623.97
2023-04-04T10:43:05.466Z,92621.56
2023-04-04T10:44:14.659Z,92623.00
2023-04-04T10:45:21.363Z,92622.78
2023-04-04T10:46:23.548Z,92631.72
2023-04-04T10:47:23.841Z,92623.94
2023-04-04T10:48:23.094Z,92574.63
2023-04-04T10:49:21.661Z,92612.63
2023-04-04T10:50:20.848Z,92631.22
2023-04-04T10:51:17.719Z,92629.09
2023-04-04T10:52:19.846Z,92630.56
2023-04-04T10:53:16.805Z,92630.47
2023-04-04T10:54:14.232Z,92627.56
2023-04-04T10:55:15.897Z,92626.78
2023-04-04T10:56:13.252Z,92636.34
2023-04-04T10:57:11.081Z,92624.22
2023-04-04T10:58:08.986Z,92636.38
2023-04-04T10:59:17.326Z,92633.69
2023-04-04T11:00:19.462Z,92593.41
2023-04-04T11:01:21.488Z,92635.13
2023-04-04T11:02:48.338Z,92632.50
2023-04-04T11:04:18.816Z,92624.19
2023-04-04T11:05:23.877Z,92635.06
2023-04-04T11:06:24.341Z,92626.88
2023-04-04T11:07:21.288Z,92640.59
2023-04-04T11:08:21.904Z,92638.91
2023-04-04T11:09:52.661Z,92643.72
2023-04-04T11:10:51.727Z,92637.91
2023-04-04T11:12:11.049Z,92639.34
2023-04-04T11:13:22.483Z,92637.47
2023-04-04T11:14:29.874Z,92642.44
2023-04-04T11:15:26.651Z,92642.38
2023-04-04T11:16:24.475Z,92637.22
2023-04-04T11:17:44.461Z,92646.06
2023-04-04T11:18:45.642Z,92648.44
2023-04-04T11:19:58.817Z,92639.16
2023-04-04T11:20:55.408Z,92646.78
2023-04-04T11:21:52.354Z,92646.44
2023-04-04T11:23:09.799Z,92644.38
2023-04-04T11:24:06.312Z,92662.63